ANA220 LTFM-RJTT
Flight info
| Callsign | ANA220 |
|---|---|
| Flight time | N/A |
| Altitude | 33000 |
| Route | VICEN UT380 ASMAP UL333 LATGA UT363 ESB DCT REBLO DCT MATAL T916 SUBUT T923 ERLEV M11 RODAR A909 TUNEK B143 KRS A480 IDRIS/N0483F350 A480 OTBOR/K0893F350 N147 GENDI Z621 ARBOL M610 RULAD/K0885S1070 A343 POSOT B215 FKG W188 LIKMI W270 BUVEM/K0889S1130 W270 DKO W69 HUR B339 LADIX W34 VAPGU W100 ORAVA W201 UNSEK A326 DONVO G597 AGAVO/N0483F370 Y644 EGOBA Y697 LANAT Y71 XAC |
| Aircraft | B77W/M-V/N |
Departure
| Time | 2026-02-22 04:12 |
|---|---|
| Airport | İstanbul Airport (LTFM) |
Arrival
| Time | N/A |
|---|---|
| Airport | Tokyo Haneda International Airport (RJTT) |
| Time | Latitude | Longitude | Altitude | Speed | Heading |
|---|---|---|---|---|---|
| 2026-02-22 03:17 | 41.26602 | 28.74117 | 318 ft | 0 kts | 89° |
| 2026-02-22 03:59 | 41.26602 | 28.74104 | 318 ft | 3 kts | 85° |
| 2026-02-22 03:59 | 41.26599 | 28.74078 | 317 ft | 3 kts | 72° |
| 2026-02-22 04:00 | 41.26591 | 28.74053 | 315 ft | 3 kts | 54° |
| 2026-02-22 04:00 | 41.26578 | 28.74034 | 315 ft | 3 kts | 33° |
| 2026-02-22 04:00 | 41.26560 | 28.74022 | 317 ft | 3 kts | 12° |
| 2026-02-22 04:00 | 41.26545 | 28.74020 | 315 ft | 1 kts | 359° |
| 2026-02-22 04:06 | 41.26559 | 28.74019 | 318 ft | 8 kts | 359° |
| 2026-02-22 04:06 | 41.26661 | 28.74018 | 318 ft | 19 kts | 359° |
| 2026-02-22 04:06 | 41.26816 | 28.74016 | 318 ft | 23 kts | 359° |
| 2026-02-22 04:07 | 41.26960 | 28.74014 | 317 ft | 18 kts | 359° |
| 2026-02-22 04:07 | 41.27047 | 28.73931 | 317 ft | 18 kts | 281° |
| 2026-02-22 04:07 | 41.27049 | 28.73769 | 315 ft | 18 kts | 269° |
| 2026-02-22 04:07 | 41.27046 | 28.73606 | 318 ft | 18 kts | 268° |
| 2026-02-22 04:08 | 41.27044 | 28.73444 | 315 ft | 18 kts | 269° |
| 2026-02-22 04:08 | 41.27042 | 28.73280 | 315 ft | 18 kts | 269° |
| 2026-02-22 04:08 | 41.27041 | 28.73116 | 312 ft | 18 kts | 269° |
| 2026-02-22 04:08 | 41.27018 | 28.73002 | 318 ft | 9 kts | 212° |
| 2026-02-22 04:09 | 41.26948 | 28.72989 | 317 ft | 13 kts | 181° |
| 2026-02-22 04:09 | 41.26820 | 28.72990 | 317 ft | 24 kts | 179° |
| 2026-02-22 04:09 | 41.26635 | 28.72994 | 318 ft | 27 kts | 179° |
| 2026-02-22 04:09 | 41.26450 | 28.72997 | 319 ft | 23 kts | 179° |
| 2026-02-22 04:10 | 41.26309 | 28.73000 | 319 ft | 16 kts | 179° |
| 2026-02-22 04:10 | 41.26229 | 28.72963 | 321 ft | 13 kts | 237° |
| 2026-02-22 04:10 | 41.26216 | 28.72851 | 324 ft | 10 kts | 268° |
| 2026-02-22 04:10 | 41.26254 | 28.72783 | 324 ft | 10 kts | 340° |
| 2026-02-22 04:11 | 41.26299 | 28.72775 | 324 ft | 0 kts | 358° |
| 2026-02-22 04:11 | 41.26307 | 28.72775 | 325 ft | 7 kts | 358° |
| 2026-02-22 04:11 | 41.26586 | 28.72769 | 325 ft | 85 kts | 359° |
| 2026-02-22 04:11 | 41.27484 | 28.72752 | 321 ft | 174 kts | 359° |
| 2026-02-22 04:12 | 41.28825 | 28.72729 | 1076 ft | 201 kts | 359° |
| 2026-02-22 04:12 | 41.30191 | 28.72695 | 2399 ft | 196 kts | 1° |
| 2026-02-22 04:12 | 41.31612 | 28.72670 | 2820 ft | 210 kts | 2° |
| 2026-02-22 04:12 | 41.33073 | 28.72649 | 3536 ft | 208 kts | 4° |
| 2026-02-22 04:13 | 41.34540 | 28.72630 | 4164 ft | 207 kts | 4° |
| 2026-02-22 04:13 | 41.35982 | 28.72341 | 4575 ft | 225 kts | 341° |
| 2026-02-22 04:13 | 41.37262 | 28.71034 | 4927 ft | 245 kts | 312° |
| 2026-02-22 04:13 | 41.38123 | 28.68946 | 5171 ft | 272 kts | 287° |
| 2026-02-22 04:14 | 41.38210 | 28.66425 | 5832 ft | 270 kts | 270° |
| 2026-02-22 04:14 | 41.38149 | 28.63979 | 6672 ft | 265 kts | 271° |
| 2026-02-22 04:14 | 41.38136 | 28.63148 | 6816 ft | 268 kts | 271° |
| 2026-02-22 04:15 | 41.38102 | 28.60635 | 7272 ft | 274 kts | 271° |
| 2026-02-22 04:15 | 41.35848 | 28.55598 | 8755 ft | 273 kts | 201° |
| 2026-02-22 04:15 | 41.33991 | 28.55026 | 9160 ft | 281 kts | 179° |
| 2026-02-22 04:15 | 41.32691 | 28.55061 | 9444 ft | 283 kts | 177° |
| 2026-02-22 04:16 | 41.30708 | 28.55133 | 10024 ft | 287 kts | 178° |
| 2026-02-22 04:16 | 41.28678 | 28.55190 | 10447 ft | 298 kts | 179° |
| 2026-02-22 04:16 | 41.26530 | 28.55262 | 10600 ft | 316 kts | 175° |
| 2026-02-22 04:16 | 41.24385 | 28.56096 | 10727 ft | 334 kts | 147° |
| 2026-02-22 04:17 | 41.22578 | 28.58129 | 10900 ft | 348 kts | 135° |
| 2026-02-22 04:17 | 41.20808 | 28.60467 | 11181 ft | 365 kts | 135° |
| 2026-02-22 04:17 | 41.18980 | 28.62868 | 11784 ft | 373 kts | 135° |
| 2026-02-22 04:17 | 41.17107 | 28.65299 | 12489 ft | 378 kts | 136° |
| 2026-02-22 04:18 | 41.15228 | 28.67711 | 13297 ft | 381 kts | 136° |
| 2026-02-22 04:18 | 41.13287 | 28.70191 | 14111 ft | 384 kts | 136° |
| 2026-02-22 04:18 | 41.11541 | 28.72812 | 14656 ft | 388 kts | 126° |
| 2026-02-22 04:18 | 41.10085 | 28.75854 | 15286 ft | 392 kts | 121° |
| 2026-02-22 04:19 | 41.08672 | 28.78965 | 16085 ft | 394 kts | 122° |
| 2026-02-22 04:19 | 41.07208 | 28.82066 | 16766 ft | 399 kts | 123° |
| 2026-02-22 04:19 | 41.05694 | 28.85178 | 17443 ft | 402 kts | 124° |
| 2026-02-22 04:19 | 41.04110 | 28.88253 | 18102 ft | 402 kts | 130° |
| 2026-02-22 04:20 | 41.02004 | 28.90605 | 18583 ft | 406 kts | 152° |
| 2026-02-22 04:20 | 40.99728 | 28.91794 | 19088 ft | 408 kts | 166° |
| 2026-02-22 04:20 | 40.96904 | 28.92214 | 19752 ft | 409 kts | 183° |
| 2026-02-22 04:20 | 40.94067 | 28.91827 | 20402 ft | 410 kts | 187° |
| 2026-02-22 04:21 | 40.91200 | 28.91381 | 20843 ft | 417 kts | 186° |
| 2026-02-22 04:21 | 40.88314 | 28.90986 | 21627 ft | 415 kts | 185° |
| 2026-02-22 04:21 | 40.85446 | 28.90809 | 22403 ft | 413 kts | 179° |
| 2026-02-22 04:21 | 40.82802 | 28.90991 | 22993 ft | 414 kts | 176° |
| 2026-02-22 04:22 | 40.79910 | 28.91324 | 23592 ft | 417 kts | 175° |
| 2026-02-22 04:22 | 40.77004 | 28.91658 | 24012 ft | 421 kts | 175° |
| 2026-02-22 04:22 | 40.74064 | 28.91953 | 24389 ft | 427 kts | 176° |
| 2026-02-22 04:22 | 40.71086 | 28.92211 | 24822 ft | 430 kts | 176° |
| 2026-02-22 04:23 | 40.68074 | 28.92452 | 25205 ft | 434 kts | 176° |
| 2026-02-22 04:23 | 40.65220 | 28.92718 | 25567 ft | 434 kts | 172° |
| 2026-02-22 04:23 | 40.62359 | 28.93778 | 25797 ft | 442 kts | 154° |
| 2026-02-22 04:23 | 40.59820 | 28.96102 | 26284 ft | 445 kts | 136° |
| 2026-02-22 04:24 | 40.57976 | 28.99152 | 26757 ft | 449 kts | 122° |
| 2026-02-22 04:24 | 40.56673 | 29.02909 | 27149 ft | 455 kts | 110° |
| 2026-02-22 04:24 | 40.56027 | 29.06960 | 27464 ft | 464 kts | 95° |
| 2026-02-22 04:24 | 40.56206 | 29.11223 | 27778 ft | 468 kts | 86° |
| 2026-02-22 04:25 | 40.56599 | 29.15484 | 28101 ft | 472 kts | 85° |
| 2026-02-22 04:25 | 40.57004 | 29.19783 | 28462 ft | 474 kts | 86° |
| 2026-02-22 04:25 | 40.57377 | 29.24098 | 28819 ft | 476 kts | 87° |
| 2026-02-22 04:25 | 40.57711 | 29.28452 | 29103 ft | 478 kts | 87° |
| 2026-02-22 04:26 | 40.58021 | 29.32830 | 29425 ft | 480 kts | 88° |
| 2026-02-22 04:26 | 40.58318 | 29.37148 | 29766 ft | 481 kts | 88° |
| 2026-02-22 04:26 | 40.58621 | 29.41535 | 30180 ft | 480 kts | 88° |
| 2026-02-22 04:26 | 40.58948 | 29.45917 | 30454 ft | 482 kts | 87° |
| 2026-02-22 04:27 | 40.59354 | 29.50310 | 30654 ft | 485 kts | 86° |
| 2026-02-22 04:27 | 40.59793 | 29.54720 | 30856 ft | 488 kts | 86° |
| 2026-02-22 04:27 | 40.60229 | 29.59145 | 31085 ft | 489 kts | 86° |
| 2026-02-22 04:27 | 40.60654 | 29.63624 | 31281 ft | 491 kts | 86° |
| 2026-02-22 04:28 | 40.61065 | 29.68100 | 31503 ft | 493 kts | 86° |
| 2026-02-22 04:28 | 40.61468 | 29.72536 | 31736 ft | 495 kts | 86° |
| 2026-02-22 04:28 | 40.61875 | 29.77039 | 31939 ft | 497 kts | 86° |
| 2026-02-22 04:28 | 40.62285 | 29.81566 | 32133 ft | 499 kts | 86° |
| 2026-02-22 04:29 | 40.62696 | 29.86112 | 32324 ft | 500 kts | 86° |
| 2026-02-22 04:29 | 40.63110 | 29.90703 | 32538 ft | 502 kts | 86° |
| 2026-02-22 04:29 | 40.63513 | 29.95196 | 32706 ft | 503 kts | 87° |
| 2026-02-22 04:29 | 40.63926 | 29.99802 | 32898 ft | 505 kts | 87° |
| 2026-02-22 04:30 | 40.64753 | 30.09076 | 33041 ft | 511 kts | 87° |
| 2026-02-22 04:30 | 40.65570 | 30.18306 | 33044 ft | 507 kts | 87° |
| 2026-02-22 04:31 | 40.66380 | 30.27549 | 33047 ft | 507 kts | 87° |
| 2026-02-22 04:31 | 40.66352 | 30.36660 | 33060 ft | 496 kts | 102° |
| 2026-02-22 04:32 | 40.65372 | 30.45692 | 33041 ft | 499 kts | 103° |
| 2026-02-22 04:32 | 40.64491 | 30.54792 | 33029 ft | 503 kts | 101° |
| 2026-02-22 04:33 | 40.63720 | 30.63917 | 33036 ft | 505 kts | 101° |
| 2026-02-22 04:33 | 40.62753 | 30.73061 | 33024 ft | 501 kts | 108° |
| 2026-02-22 04:34 | 40.60907 | 30.81878 | 33022 ft | 498 kts | 111° |
| 2026-02-22 04:34 | 40.58993 | 30.90604 | 33013 ft | 499 kts | 111° |
| 2026-02-22 04:35 | 40.57109 | 30.99398 | 32997 ft | 499 kts | 111° |
| 2026-02-22 04:35 | 40.55252 | 31.08136 | 33000 ft | 497 kts | 111° |
| 2026-02-22 04:36 | 40.53379 | 31.16904 | 32990 ft | 497 kts | 111° |
| 2026-02-22 04:36 | 40.51496 | 31.25664 | 32987 ft | 497 kts | 112° |
| 2026-02-22 04:37 | 40.49607 | 31.34416 | 32982 ft | 498 kts | 112° |
| 2026-02-22 04:37 | 40.47720 | 31.43136 | 32992 ft | 498 kts | 112° |
| 2026-02-22 04:38 | 40.45825 | 31.51857 | 32984 ft | 500 kts | 112° |
| 2026-02-22 04:38 | 40.43908 | 31.60663 | 32961 ft | 501 kts | 112° |
| 2026-02-22 04:39 | 40.41991 | 31.69440 | 32957 ft | 501 kts | 112° |
| 2026-02-22 04:39 | 40.40058 | 31.78253 | 32947 ft | 501 kts | 112° |
| 2026-02-22 04:40 | 40.38123 | 31.87050 | 32961 ft | 502 kts | 112° |
| 2026-02-22 04:40 | 40.36176 | 31.95856 | 32942 ft | 502 kts | 112° |
| 2026-02-22 04:41 | 40.34176 | 32.04561 | 32953 ft | 501 kts | 113° |
| 2026-02-22 04:41 | 40.32186 | 32.13358 | 32938 ft | 504 kts | 111° |
| 2026-02-22 04:42 | 40.30448 | 32.22284 | 32943 ft | 506 kts | 110° |
| 2026-02-22 04:42 | 40.28744 | 32.31254 | 32936 ft | 507 kts | 110° |
| 2026-02-22 04:43 | 40.27006 | 32.40142 | 32933 ft | 507 kts | 111° |
| 2026-02-22 04:43 | 40.25221 | 32.49109 | 32932 ft | 506 kts | 111° |
| 2026-02-22 04:44 | 40.23436 | 32.58022 | 32933 ft | 507 kts | 111° |
| 2026-02-22 04:44 | 40.21652 | 32.66905 | 32930 ft | 507 kts | 111° |
| 2026-02-22 04:45 | 40.19850 | 32.75849 | 32930 ft | 508 kts | 111° |
| 2026-02-22 04:45 | 40.18040 | 32.84794 | 32910 ft | 508 kts | 111° |
| 2026-02-22 04:46 | 40.16237 | 32.93680 | 32910 ft | 509 kts | 111° |
| 2026-02-22 04:46 | 40.15260 | 33.02966 | 32908 ft | 522 kts | 97° |
| 2026-02-22 04:47 | 40.15789 | 33.12538 | 32920 ft | 531 kts | 86° |
| 2026-02-22 04:47 | 40.16910 | 33.22048 | 32914 ft | 532 kts | 85° |
| 2026-02-22 04:48 | 40.18039 | 33.31619 | 32911 ft | 532 kts | 86° |
| 2026-02-22 04:48 | 40.19112 | 33.41215 | 32897 ft | 531 kts | 86° |
| 2026-02-22 04:49 | 40.20141 | 33.50761 | 32918 ft | 530 kts | 86° |
| 2026-02-22 04:49 | 40.21159 | 33.60318 | 32907 ft | 530 kts | 86° |
| 2026-02-22 04:50 | 40.22166 | 33.69823 | 32916 ft | 530 kts | 86° |
| 2026-02-22 04:50 | 40.23177 | 33.79422 | 32914 ft | 531 kts | 87° |
| 2026-02-22 04:51 | 40.24175 | 33.88958 | 32913 ft | 531 kts | 86° |
| 2026-02-22 04:51 | 40.25170 | 33.98541 | 32910 ft | 531 kts | 87° |
| 2026-02-22 04:52 | 40.26646 | 34.12913 | 32906 ft | 532 kts | 87° |
| 2026-02-22 04:53 | 40.27622 | 34.22525 | 32919 ft | 532 kts | 87° |
| 2026-02-22 04:53 | 40.28593 | 34.32163 | 32905 ft | 533 kts | 87° |
| 2026-02-22 04:54 | 40.29550 | 34.41753 | 32904 ft | 534 kts | 87° |
| 2026-02-22 04:54 | 40.30030 | 34.46612 | 33393 ft | 539 kts | 85° |
| 2026-02-22 04:54 | 40.30514 | 34.51513 | 33149 ft | 540 kts | 85° |
| 2026-02-22 04:54 | 40.30989 | 34.56321 | 33028 ft | 536 kts | 85° |
| 2026-02-22 04:55 | 40.31464 | 34.61137 | 32953 ft | 531 kts | 86° |
| 2026-02-22 04:55 | 40.32396 | 34.70693 | 32931 ft | 531 kts | 86° |
| 2026-02-22 04:56 | 40.33326 | 34.80383 | 32923 ft | 539 kts | 86° |
| 2026-02-22 04:56 | 40.34262 | 34.90184 | 32928 ft | 541 kts | 86° |
| 2026-02-22 04:57 | 40.35186 | 34.99930 | 32925 ft | 542 kts | 86° |
| 2026-02-22 04:57 | 40.36110 | 35.09751 | 32919 ft | 541 kts | 86° |
| 2026-02-22 04:58 | 40.37016 | 35.19487 | 32923 ft | 540 kts | 87° |
| 2026-02-22 04:58 | 40.37916 | 35.29249 | 32915 ft | 539 kts | 87° |
| 2026-02-22 04:59 | 40.38807 | 35.39010 | 32914 ft | 538 kts | 87° |
| 2026-02-22 04:59 | 40.39684 | 35.48729 | 32918 ft | 538 kts | 87° |
| 2026-02-22 05:00 | 40.40559 | 35.58501 | 32921 ft | 539 kts | 88° |
| 2026-02-22 05:00 | 40.41428 | 35.68298 | 32925 ft | 539 kts | 88° |
| 2026-02-22 05:01 | 40.42282 | 35.78032 | 32922 ft | 540 kts | 88° |
| 2026-02-22 05:01 | 40.43137 | 35.87860 | 32919 ft | 541 kts | 88° |
| 2026-02-22 05:02 | 40.43984 | 35.97701 | 32947 ft | 541 kts | 88° |
| 2026-02-22 05:02 | 40.44816 | 36.07465 | 32953 ft | 541 kts | 89° |
| 2026-02-22 05:03 | 40.45507 | 36.15658 | 32956 ft | 542 kts | 88° |
| 2026-02-22 05:03 | 40.46331 | 36.25515 | 32948 ft | 543 kts | 88° |
| 2026-02-22 05:04 | 40.47147 | 36.35374 | 32952 ft | 543 kts | 89° |
| 2026-02-22 05:04 | 40.47957 | 36.45258 | 32967 ft | 544 kts | 89° |
| 2026-02-22 05:05 | 40.48758 | 36.55147 | 32964 ft | 545 kts | 89° |
| 2026-02-22 05:05 | 40.49547 | 36.64993 | 32955 ft | 545 kts | 89° |
| 2026-02-22 05:06 | 40.50335 | 36.74928 | 32963 ft | 545 kts | 89° |
| 2026-02-22 05:06 | 40.51109 | 36.84801 | 32951 ft | 545 kts | 89° |
| 2026-02-22 05:07 | 40.51879 | 36.94736 | 32955 ft | 545 kts | 89° |
| 2026-02-22 05:07 | 40.52640 | 37.04659 | 32955 ft | 546 kts | 89° |
| 2026-02-22 05:08 | 40.53387 | 37.14542 | 32930 ft | 547 kts | 89° |
| 2026-02-22 05:08 | 40.54135 | 37.24507 | 32921 ft | 546 kts | 89° |
| 2026-02-22 05:09 | 40.54872 | 37.34453 | 32921 ft | 546 kts | 89° |
| 2026-02-22 05:09 | 40.55595 | 37.44334 | 32915 ft | 545 kts | 89° |
| 2026-02-22 05:10 | 40.56313 | 37.54266 | 32909 ft | 544 kts | 89° |
| 2026-02-22 05:10 | 40.57022 | 37.64186 | 32923 ft | 543 kts | 90° |
| 2026-02-22 05:11 | 40.57717 | 37.74040 | 32926 ft | 543 kts | 90° |
| 2026-02-22 05:11 | 40.58406 | 37.83944 | 32929 ft | 542 kts | 90° |
| 2026-02-22 05:12 | 40.59088 | 37.93847 | 32942 ft | 542 kts | 90° |
| 2026-02-22 05:12 | 40.59752 | 38.03674 | 32932 ft | 541 kts | 90° |
| 2026-02-22 05:13 | 40.60417 | 38.13558 | 32942 ft | 542 kts | 90° |
| 2026-02-22 05:13 | 40.61073 | 38.23411 | 32928 ft | 542 kts | 90° |
| 2026-02-22 05:14 | 40.61718 | 38.33315 | 32962 ft | 543 kts | 90° |
| 2026-02-22 05:14 | 40.62357 | 38.43259 | 32946 ft | 544 kts | 90° |
| 2026-02-22 05:15 | 40.62989 | 38.53159 | 32930 ft | 546 kts | 91° |
| 2026-02-22 05:15 | 40.63618 | 38.63130 | 32970 ft | 546 kts | 91° |
| 2026-02-22 05:16 | 40.64234 | 38.73144 | 32951 ft | 548 kts | 91° |
| 2026-02-22 05:16 | 40.64844 | 38.83155 | 32942 ft | 548 kts | 91° |
| 2026-02-22 05:17 | 40.65448 | 38.93114 | 32956 ft | 547 kts | 91° |
| 2026-02-22 05:17 | 40.66037 | 39.03118 | 32951 ft | 547 kts | 91° |
| 2026-02-22 05:18 | 40.66617 | 39.13060 | 32936 ft | 547 kts | 91° |
| 2026-02-22 05:18 | 40.67194 | 39.23061 | 32969 ft | 548 kts | 91° |
| 2026-02-22 05:19 | 40.67761 | 39.33096 | 32949 ft | 549 kts | 92° |
| 2026-02-22 05:19 | 40.68323 | 39.43144 | 32951 ft | 549 kts | 92° |
| 2026-02-22 05:20 | 40.68870 | 39.53128 | 32936 ft | 549 kts | 92° |
| 2026-02-22 05:20 | 40.69410 | 39.63184 | 32936 ft | 549 kts | 92° |
| 2026-02-22 05:21 | 40.69948 | 39.73247 | 32904 ft | 548 kts | 92° |
| 2026-02-22 05:21 | 40.70472 | 39.83268 | 32927 ft | 549 kts | 92° |
| 2026-02-22 05:22 | 40.70983 | 39.93252 | 32973 ft | 547 kts | 92° |
| 2026-02-22 05:22 | 40.71492 | 40.03302 | 32937 ft | 550 kts | 92° |
| 2026-02-22 05:23 | 40.71991 | 40.13382 | 32948 ft | 552 kts | 92° |
| 2026-02-22 05:23 | 40.72485 | 40.23534 | 32917 ft | 555 kts | 92° |
| 2026-02-22 05:24 | 40.72975 | 40.33659 | 32949 ft | 557 kts | 92° |
| 2026-02-22 05:24 | 40.73454 | 40.43886 | 32955 ft | 559 kts | 92° |
| 2026-02-22 05:25 | 40.73928 | 40.54132 | 32957 ft | 557 kts | 92° |
| 2026-02-22 05:25 | 40.74384 | 40.64295 | 32981 ft | 556 kts | 93° |
| 2026-02-22 05:26 | 40.74837 | 40.74448 | 33006 ft | 557 kts | 93° |
| 2026-02-22 05:26 | 40.75283 | 40.84700 | 33011 ft | 560 kts | 93° |
| 2026-02-22 05:27 | 40.75719 | 40.95001 | 32981 ft | 559 kts | 93° |
| 2026-02-22 05:27 | 40.76146 | 41.05163 | 32976 ft | 557 kts | 93° |
| 2026-02-22 05:28 | 40.76562 | 41.15367 | 32990 ft | 556 kts | 93° |
| 2026-02-22 05:28 | 40.76970 | 41.25592 | 33014 ft | 559 kts | 93° |
| 2026-02-22 05:29 | 40.77366 | 41.35808 | 33037 ft | 562 kts | 93° |
| 2026-02-22 05:29 | 40.77759 | 41.46154 | 33026 ft | 564 kts | 93° |
| 2026-02-22 05:30 | 40.78144 | 41.56434 | 33042 ft | 563 kts | 93° |
| 2026-02-22 05:30 | 40.78520 | 41.66755 | 33008 ft | 561 kts | 93° |
| 2026-02-22 05:31 | 40.78886 | 41.77053 | 33031 ft | 562 kts | 93° |
| 2026-02-22 05:31 | 40.79241 | 41.87325 | 33026 ft | 563 kts | 93° |
| 2026-02-22 05:32 | 40.79588 | 41.97668 | 33043 ft | 562 kts | 93° |
| 2026-02-22 05:32 | 40.79924 | 42.08001 | 33016 ft | 564 kts | 93° |
| 2026-02-22 05:33 | 40.80256 | 42.18360 | 33013 ft | 565 kts | 93° |
| 2026-02-22 05:33 | 40.80581 | 42.28715 | 33034 ft | 564 kts | 93° |
| 2026-02-22 05:34 | 40.80890 | 42.39008 | 33011 ft | 564 kts | 94° |
| 2026-02-22 05:34 | 40.81189 | 42.49345 | 33021 ft | 562 kts | 94° |
| 2026-02-22 05:35 | 40.81480 | 42.59670 | 33031 ft | 562 kts | 93° |
| 2026-02-22 05:35 | 40.81762 | 42.69951 | 33036 ft | 563 kts | 93° |
| 2026-02-22 05:36 | 40.82037 | 42.80305 | 33038 ft | 563 kts | 94° |
| 2026-02-22 05:36 | 40.82301 | 42.90594 | 33074 ft | 563 kts | 94° |
| 2026-02-22 05:37 | 40.82557 | 43.00933 | 33070 ft | 563 kts | 94° |
| 2026-02-22 05:37 | 40.82803 | 43.11255 | 33090 ft | 562 kts | 94° |
| 2026-02-22 05:38 | 40.83037 | 43.21539 | 33096 ft | 562 kts | 94° |
| 2026-02-22 05:38 | 40.83266 | 43.31871 | 33107 ft | 562 kts | 94° |
| 2026-02-22 05:39 | 40.83485 | 43.42222 | 33127 ft | 562 kts | 94° |
| 2026-02-22 05:39 | 40.83695 | 43.52570 | 33124 ft | 563 kts | 94° |
| 2026-02-22 05:40 | 40.83895 | 43.62841 | 33130 ft | 562 kts | 94° |
| 2026-02-22 05:40 | 40.83929 | 43.73170 | 33124 ft | 559 kts | 98° |
| 2026-02-22 05:41 | 40.83588 | 43.83423 | 33126 ft | 557 kts | 99° |
| 2026-02-22 05:41 | 40.83201 | 43.93588 | 33128 ft | 557 kts | 98° |
| 2026-02-22 05:42 | 40.82834 | 44.03824 | 33085 ft | 558 kts | 98° |
| 2026-02-22 05:42 | 40.82303 | 44.19191 | 33072 ft | 557 kts | 98° |
| 2026-02-22 05:43 | 40.81937 | 44.29399 | 33060 ft | 556 kts | 98° |
| 2026-02-22 05:43 | 40.81562 | 44.39610 | 33049 ft | 556 kts | 98° |
| 2026-02-22 05:44 | 40.81177 | 44.49734 | 33055 ft | 555 kts | 98° |
| 2026-02-22 05:44 | 40.80786 | 44.59928 | 33068 ft | 555 kts | 98° |
| 2026-02-22 05:45 | 40.80381 | 44.70128 | 33068 ft | 556 kts | 98° |
| 2026-02-22 05:45 | 40.79968 | 44.80267 | 33063 ft | 556 kts | 98° |
| 2026-02-22 05:46 | 40.79549 | 44.90459 | 33061 ft | 555 kts | 98° |
| 2026-02-22 05:46 | 40.79119 | 45.00642 | 33075 ft | 555 kts | 98° |
| 2026-02-22 05:47 | 40.78683 | 45.10784 | 33099 ft | 556 kts | 98° |
| 2026-02-22 05:47 | 40.78233 | 45.20972 | 33086 ft | 556 kts | 98° |
| 2026-02-22 05:48 | 40.77776 | 45.31164 | 33089 ft | 556 kts | 98° |
| 2026-02-22 05:48 | 40.77316 | 45.41286 | 33110 ft | 556 kts | 98° |
| 2026-02-22 05:49 | 40.77077 | 45.51508 | 33097 ft | 559 kts | 91° |
| 2026-02-22 05:49 | 40.77966 | 45.61741 | 33135 ft | 562 kts | 84° |
| 2026-02-22 05:50 | 40.79104 | 45.71888 | 33143 ft | 562 kts | 84° |
| 2026-02-22 05:50 | 40.80193 | 45.82109 | 33133 ft | 562 kts | 85° |
| 2026-02-22 05:51 | 40.81227 | 45.92346 | 33161 ft | 562 kts | 85° |
| 2026-02-22 05:51 | 40.82074 | 46.00864 | 33167 ft | 561 kts | 85° |
| 2026-02-22 05:52 | 40.83250 | 46.12751 | 33181 ft | 561 kts | 85° |
| 2026-02-22 05:52 | 40.84090 | 46.21271 | 33181 ft | 561 kts | 85° |
| 2026-02-22 05:53 | 40.85089 | 46.31502 | 33191 ft | 561 kts | 85° |
| 2026-02-22 05:53 | 40.86081 | 46.41753 | 33183 ft | 561 kts | 85° |
| 2026-02-22 05:54 | 40.87055 | 46.51926 | 33197 ft | 561 kts | 85° |
| 2026-02-22 05:54 | 40.88026 | 46.62159 | 33200 ft | 561 kts | 85° |
| 2026-02-22 05:55 | 40.88985 | 46.72355 | 33210 ft | 561 kts | 85° |
| 2026-02-22 05:55 | 40.89715 | 46.82617 | 33218 ft | 558 kts | 92° |
| 2026-02-22 05:56 | 40.89259 | 46.92799 | 33230 ft | 552 kts | 100° |
| 2026-02-22 05:56 | 40.88436 | 47.02848 | 33222 ft | 553 kts | 100° |
| 2026-02-22 05:57 | 40.87654 | 47.12995 | 33212 ft | 554 kts | 99° |
| 2026-02-22 05:57 | 40.86909 | 47.23140 | 33208 ft | 554 kts | 99° |
| 2026-02-22 05:58 | 40.86160 | 47.33230 | 33208 ft | 554 kts | 99° |
| 2026-02-22 05:58 | 40.85391 | 47.43385 | 33188 ft | 555 kts | 99° |
| 2026-02-22 05:59 | 40.84620 | 47.53542 | 33178 ft | 555 kts | 99° |
| 2026-02-22 05:59 | 40.83977 | 47.63656 | 33181 ft | 555 kts | 98° |
| 2026-02-22 06:00 | 40.83380 | 47.73838 | 33181 ft | 555 kts | 97° |
| 2026-02-22 06:00 | 40.82760 | 47.84006 | 33186 ft | 554 kts | 98° |
| 2026-02-22 06:01 | 40.82113 | 47.94153 | 33170 ft | 555 kts | 98° |
| 2026-02-22 06:01 | 40.81452 | 48.04310 | 33164 ft | 554 kts | 98° |
| 2026-02-22 06:02 | 40.80789 | 48.14375 | 33153 ft | 553 kts | 98° |
| 2026-02-22 06:02 | 40.80113 | 48.24520 | 33137 ft | 553 kts | 98° |
| 2026-02-22 06:03 | 40.79436 | 48.34577 | 33143 ft | 552 kts | 98° |
| 2026-02-22 06:03 | 40.78746 | 48.44675 | 33134 ft | 551 kts | 98° |
| 2026-02-22 06:04 | 40.78048 | 48.54773 | 33139 ft | 551 kts | 98° |
| 2026-02-22 06:04 | 40.77341 | 48.64837 | 33141 ft | 551 kts | 97° |
| 2026-02-22 06:05 | 40.76626 | 48.74908 | 33148 ft | 550 kts | 97° |
| 2026-02-22 06:05 | 40.75906 | 48.84932 | 33158 ft | 550 kts | 97° |
| 2026-02-22 06:06 | 40.75175 | 48.94978 | 33169 ft | 549 kts | 97° |
| 2026-02-22 06:06 | 40.74440 | 49.04955 | 33160 ft | 549 kts | 97° |
| 2026-02-22 06:07 | 40.73694 | 49.14977 | 33185 ft | 548 kts | 97° |
| 2026-02-22 06:07 | 40.72940 | 49.24986 | 33174 ft | 548 kts | 98° |
| 2026-02-22 06:08 | 40.71849 | 49.34945 | 33179 ft | 546 kts | 102° |
| 2026-02-22 06:08 | 40.70592 | 49.44763 | 33182 ft | 545 kts | 101° |
| 2026-02-22 06:09 | 40.69424 | 49.54647 | 33186 ft | 546 kts | 101° |
| 2026-02-22 06:09 | 40.68232 | 49.64554 | 33185 ft | 546 kts | 101° |
| 2026-02-22 06:10 | 40.67021 | 49.74448 | 33174 ft | 547 kts | 101° |
| 2026-02-22 06:10 | 40.65809 | 49.84294 | 33182 ft | 547 kts | 101° |
| 2026-02-22 06:11 | 40.64583 | 49.94203 | 33170 ft | 548 kts | 101° |
| 2026-02-22 06:11 | 40.63347 | 50.04131 | 33160 ft | 548 kts | 101° |
| 2026-02-22 06:12 | 40.62112 | 50.13975 | 33159 ft | 548 kts | 101° |
| 2026-02-22 06:12 | 40.60860 | 50.23882 | 33159 ft | 548 kts | 101° |
| 2026-02-22 06:13 | 40.59598 | 50.33802 | 33165 ft | 548 kts | 101° |
| 2026-02-22 06:13 | 40.58336 | 50.43649 | 33162 ft | 548 kts | 101° |
| 2026-02-22 06:14 | 40.57059 | 50.53547 | 33160 ft | 548 kts | 101° |
| 2026-02-22 06:14 | 40.55773 | 50.63444 | 33178 ft | 548 kts | 101° |
| 2026-02-22 06:15 | 40.54477 | 50.73343 | 33181 ft | 548 kts | 101° |
| 2026-02-22 06:15 | 40.53185 | 50.83162 | 33168 ft | 548 kts | 101° |
| 2026-02-22 06:16 | 40.51893 | 50.93060 | 33170 ft | 548 kts | 99° |
| 2026-02-22 06:16 | 40.50954 | 51.03022 | 33158 ft | 548 kts | 97° |
| 2026-02-22 06:17 | 40.50108 | 51.12930 | 33167 ft | 549 kts | 97° |
| 2026-02-22 06:17 | 40.49216 | 51.22903 | 33176 ft | 548 kts | 98° |
| 2026-02-22 06:18 | 40.48295 | 51.32854 | 33169 ft | 548 kts | 98° |
| 2026-02-22 06:18 | 40.47366 | 51.42812 | 33160 ft | 548 kts | 98° |
| 2026-02-22 06:19 | 40.46287 | 51.52657 | 33159 ft | 547 kts | 104° |
| 2026-02-22 06:19 | 40.44507 | 51.62354 | 33163 ft | 546 kts | 106° |
| 2026-02-22 06:20 | 40.42654 | 51.72039 | 33155 ft | 546 kts | 105° |
| 2026-02-22 06:20 | 40.40848 | 51.81668 | 33157 ft | 546 kts | 105° |
| 2026-02-22 06:21 | 40.39050 | 51.91365 | 33153 ft | 546 kts | 105° |
| 2026-02-22 06:21 | 40.37247 | 52.01052 | 33152 ft | 546 kts | 105° |
| 2026-02-22 06:22 | 40.35433 | 52.10725 | 33150 ft | 546 kts | 105° |
| 2026-02-22 06:22 | 40.33621 | 52.20335 | 33152 ft | 546 kts | 105° |
| 2026-02-22 06:23 | 40.31785 | 52.30027 | 33151 ft | 546 kts | 105° |
| 2026-02-22 06:23 | 40.29953 | 52.39648 | 33153 ft | 546 kts | 105° |
| 2026-02-22 06:24 | 40.28105 | 52.49313 | 33152 ft | 546 kts | 105° |
| 2026-02-22 06:24 | 40.25616 | 52.58661 | 33153 ft | 542 kts | 117° |
| 2026-02-22 06:25 | 40.21972 | 52.67225 | 33143 ft | 536 kts | 128° |
| 2026-02-22 06:25 | 40.17710 | 52.75168 | 33154 ft | 536 kts | 129° |
| 2026-02-22 06:26 | 40.13440 | 52.83184 | 33159 ft | 537 kts | 128° |
| 2026-02-22 06:26 | 40.09212 | 52.91234 | 33158 ft | 537 kts | 128° |
| 2026-02-22 06:27 | 40.05571 | 52.99671 | 33153 ft | 542 kts | 109° |
| 2026-02-22 06:27 | 40.04715 | 53.04469 | 33165 ft | 544 kts | 97° |
| 2026-02-22 06:27 | 40.04555 | 53.09403 | 33152 ft | 542 kts | 83° |
| 2026-02-22 06:28 | 40.05554 | 53.19128 | 33164 ft | 540 kts | 79° |
| 2026-02-22 06:28 | 40.06579 | 53.28823 | 33162 ft | 543 kts | 80° |
| 2026-02-22 06:29 | 40.07525 | 53.38634 | 33156 ft | 544 kts | 81° |
| 2026-02-22 06:29 | 40.08414 | 53.48394 | 33158 ft | 544 kts | 81° |
| 2026-02-22 06:30 | 40.09296 | 53.58221 | 33154 ft | 543 kts | 81° |
| 2026-02-22 06:30 | 40.10167 | 53.67949 | 33161 ft | 541 kts | 81° |
| 2026-02-22 06:31 | 40.11039 | 53.77731 | 33160 ft | 540 kts | 81° |
| 2026-02-22 06:31 | 40.11899 | 53.87477 | 33157 ft | 538 kts | 81° |
| 2026-02-22 06:32 | 40.12743 | 53.97136 | 33157 ft | 538 kts | 81° |
| 2026-02-22 06:32 | 40.13584 | 54.06870 | 33156 ft | 537 kts | 81° |
| 2026-02-22 06:33 | 40.14417 | 54.16589 | 33157 ft | 537 kts | 81° |
| 2026-02-22 06:33 | 40.15237 | 54.26271 | 33155 ft | 537 kts | 82° |
| 2026-02-22 06:34 | 40.16048 | 54.35935 | 33160 ft | 537 kts | 82° |
| 2026-02-22 06:34 | 40.16855 | 54.45648 | 33161 ft | 537 kts | 82° |
| 2026-02-22 06:35 | 40.17653 | 54.55355 | 33162 ft | 537 kts | 82° |
| 2026-02-22 06:35 | 40.18444 | 54.65083 | 33167 ft | 537 kts | 82° |
| 2026-02-22 06:36 | 40.19222 | 54.74742 | 33167 ft | 537 kts | 82° |
| 2026-02-22 06:36 | 40.19996 | 54.84464 | 33169 ft | 537 kts | 82° |
| 2026-02-22 06:37 | 40.20759 | 54.94156 | 33171 ft | 537 kts | 82° |
| 2026-02-22 06:37 | 40.21517 | 55.03876 | 33168 ft | 536 kts | 82° |
| 2026-02-22 06:38 | 40.22268 | 55.13623 | 33168 ft | 536 kts | 82° |
| 2026-02-22 06:38 | 40.23004 | 55.23278 | 33166 ft | 536 kts | 82° |
| 2026-02-22 06:39 | 40.23737 | 55.33007 | 33163 ft | 536 kts | 82° |
| 2026-02-22 06:39 | 40.24462 | 55.42730 | 33168 ft | 536 kts | 82° |
| 2026-02-22 06:40 | 40.25059 | 55.50821 | 33166 ft | 536 kts | 82° |
| 2026-02-22 06:40 | 40.25765 | 55.60493 | 33174 ft | 536 kts | 82° |
| 2026-02-22 06:41 | 40.26492 | 55.70207 | 33167 ft | 535 kts | 79° |
| 2026-02-22 06:41 | 40.28056 | 55.79641 | 33176 ft | 529 kts | 69° |
| 2026-02-22 06:42 | 40.30598 | 55.88645 | 33182 ft | 527 kts | 65° |
| 2026-02-22 06:42 | 40.33232 | 55.97699 | 33178 ft | 528 kts | 65° |
| 2026-02-22 06:43 | 40.35790 | 56.06687 | 33172 ft | 529 kts | 66° |
| 2026-02-22 06:43 | 40.38333 | 56.15764 | 33176 ft | 529 kts | 66° |
| 2026-02-22 06:44 | 40.40868 | 56.24853 | 33174 ft | 530 kts | 66° |
| 2026-02-22 06:44 | 40.43384 | 56.33890 | 33178 ft | 530 kts | 66° |
| 2026-02-22 06:45 | 40.45911 | 56.42998 | 33181 ft | 530 kts | 66° |
| 2026-02-22 06:45 | 40.48428 | 56.52100 | 33178 ft | 529 kts | 66° |
| 2026-02-22 06:46 | 40.50921 | 56.61147 | 33177 ft | 529 kts | 66° |
| 2026-02-22 06:47 | 40.54678 | 56.74841 | 33178 ft | 529 kts | 66° |
| 2026-02-22 06:47 | 40.57155 | 56.83910 | 33187 ft | 529 kts | 66° |
| 2026-02-22 06:48 | 40.59621 | 56.92976 | 33196 ft | 529 kts | 67° |
| 2026-02-22 06:48 | 40.62096 | 57.02106 | 33182 ft | 529 kts | 67° |
| 2026-02-22 06:49 | 40.64561 | 57.11230 | 33172 ft | 529 kts | 67° |
| 2026-02-22 06:49 | 40.67006 | 57.20386 | 33179 ft | 529 kts | 67° |
| 2026-02-22 06:50 | 40.69422 | 57.29492 | 33198 ft | 529 kts | 67° |
| 2026-02-22 06:50 | 40.71850 | 57.38669 | 33185 ft | 529 kts | 68° |
| 2026-02-22 06:51 | 40.74271 | 57.47847 | 33183 ft | 529 kts | 68° |
| 2026-02-22 06:51 | 40.76673 | 57.56985 | 33180 ft | 530 kts | 68° |
| 2026-02-22 06:52 | 40.79101 | 57.66183 | 33175 ft | 530 kts | 67° |
| 2026-02-22 06:52 | 40.81674 | 57.75247 | 33180 ft | 529 kts | 65° |
| 2026-02-22 06:53 | 40.84310 | 57.84338 | 33183 ft | 529 kts | 66° |
| 2026-02-22 06:53 | 40.86903 | 57.93395 | 33181 ft | 530 kts | 66° |
| 2026-02-22 06:54 | 40.89483 | 58.02519 | 33177 ft | 530 kts | 66° |
| 2026-02-22 06:54 | 40.92056 | 58.11671 | 33185 ft | 530 kts | 66° |
| 2026-02-22 06:55 | 40.94626 | 58.20840 | 33178 ft | 530 kts | 66° |
| 2026-02-22 06:55 | 40.97168 | 58.29936 | 33187 ft | 530 kts | 66° |
| 2026-02-22 06:56 | 40.99720 | 58.39099 | 33183 ft | 530 kts | 66° |
| 2026-02-22 06:56 | 41.02267 | 58.48276 | 33180 ft | 530 kts | 67° |
| 2026-02-22 06:57 | 41.04788 | 58.57394 | 33182 ft | 530 kts | 67° |
| 2026-02-22 06:57 | 41.07319 | 58.66582 | 33181 ft | 530 kts | 67° |
| 2026-02-22 06:58 | 41.09822 | 58.75703 | 33183 ft | 530 kts | 67° |
| 2026-02-22 06:58 | 41.12338 | 58.84904 | 33182 ft | 530 kts | 67° |
| 2026-02-22 06:59 | 41.14846 | 58.94110 | 33184 ft | 530 kts | 67° |
| 2026-02-22 06:59 | 41.17344 | 59.03310 | 33181 ft | 530 kts | 67° |
| 2026-02-22 07:00 | 41.19836 | 59.12525 | 33186 ft | 529 kts | 68° |
| 2026-02-22 07:00 | 41.22304 | 59.21685 | 33182 ft | 530 kts | 68° |
| 2026-02-22 07:01 | 41.24790 | 59.30943 | 33186 ft | 530 kts | 68° |
| 2026-02-22 07:01 | 41.27250 | 59.40143 | 33182 ft | 530 kts | 68° |
| 2026-02-22 07:02 | 41.29717 | 59.49400 | 33183 ft | 530 kts | 68° |
| 2026-02-22 07:02 | 41.32159 | 59.58602 | 33178 ft | 530 kts | 68° |
| 2026-02-22 07:03 | 41.34609 | 59.67873 | 33185 ft | 530 kts | 68° |
| 2026-02-22 07:03 | 41.36931 | 59.77216 | 33174 ft | 530 kts | 70° |
| 2026-02-22 07:04 | 41.39184 | 59.86578 | 33186 ft | 530 kts | 70° |
| 2026-02-22 07:04 | 41.41438 | 59.95887 | 33189 ft | 530 kts | 70° |
| 2026-02-22 07:05 | 41.43710 | 60.05244 | 33173 ft | 530 kts | 70° |
| 2026-02-22 07:05 | 41.45975 | 60.14606 | 33187 ft | 530 kts | 70° |
| 2026-02-22 07:06 | 41.48226 | 60.23991 | 33196 ft | 530 kts | 70° |
| 2026-02-22 07:06 | 41.50420 | 60.33342 | 33181 ft | 530 kts | 70° |
| 2026-02-22 07:07 | 41.52613 | 60.42746 | 33187 ft | 530 kts | 70° |
| 2026-02-22 07:07 | 41.54794 | 60.52107 | 33183 ft | 530 kts | 70° |
| 2026-02-22 07:08 | 41.56984 | 60.61537 | 33186 ft | 530 kts | 70° |
| 2026-02-22 07:08 | 41.59211 | 60.70872 | 33185 ft | 529 kts | 69° |
| 2026-02-22 07:09 | 41.61687 | 60.80163 | 33185 ft | 529 kts | 68° |
| 2026-02-22 07:09 | 41.64182 | 60.89424 | 33188 ft | 529 kts | 68° |
| 2026-02-22 07:10 | 41.66622 | 60.98680 | 33195 ft | 529 kts | 68° |
| 2026-02-22 07:10 | 41.69042 | 61.07987 | 33196 ft | 529 kts | 68° |
| 2026-02-22 07:11 | 41.71454 | 61.17312 | 33199 ft | 529 kts | 68° |
| 2026-02-22 07:11 | 41.73845 | 61.26575 | 33202 ft | 529 kts | 69° |
| 2026-02-22 07:12 | 41.76249 | 61.35919 | 33202 ft | 529 kts | 69° |
| 2026-02-22 07:12 | 41.78642 | 61.45256 | 33206 ft | 530 kts | 69° |
| 2026-02-22 07:13 | 41.81016 | 61.54557 | 33204 ft | 530 kts | 69° |
| 2026-02-22 07:13 | 41.83396 | 61.63920 | 33207 ft | 530 kts | 69° |
| 2026-02-22 07:14 | 41.85777 | 61.73316 | 33209 ft | 530 kts | 69° |
| 2026-02-22 07:14 | 41.88118 | 61.82628 | 33210 ft | 530 kts | 69° |
| 2026-02-22 07:15 | 41.90461 | 61.92027 | 33208 ft | 530 kts | 69° |
| 2026-02-22 07:15 | 41.92794 | 62.01416 | 33218 ft | 529 kts | 69° |
| 2026-02-22 07:16 | 41.95120 | 62.10801 | 33213 ft | 529 kts | 69° |
| 2026-02-22 07:16 | 41.97444 | 62.20205 | 33213 ft | 529 kts | 69° |
| 2026-02-22 07:17 | 41.99746 | 62.29557 | 33214 ft | 529 kts | 69° |
| 2026-02-22 07:17 | 42.02058 | 62.38986 | 33209 ft | 529 kts | 69° |
| 2026-02-22 07:18 | 42.04356 | 62.48401 | 33217 ft | 529 kts | 69° |
| 2026-02-22 07:18 | 42.06634 | 62.57769 | 33219 ft | 529 kts | 69° |
| 2026-02-22 07:19 | 42.08920 | 62.67202 | 33221 ft | 530 kts | 69° |
| 2026-02-22 07:19 | 42.11213 | 62.76676 | 33220 ft | 530 kts | 69° |
| 2026-02-22 07:20 | 42.13475 | 62.86076 | 33224 ft | 529 kts | 69° |
| 2026-02-22 07:20 | 42.15734 | 62.95526 | 33223 ft | 530 kts | 70° |
| 2026-02-22 07:21 | 42.17994 | 63.04990 | 33224 ft | 530 kts | 69° |
| 2026-02-22 07:21 | 42.20249 | 63.14411 | 33223 ft | 530 kts | 69° |
| 2026-02-22 07:22 | 42.22510 | 63.23888 | 33219 ft | 530 kts | 69° |
| 2026-02-22 07:22 | 42.24748 | 63.33320 | 33214 ft | 530 kts | 70° |
| 2026-02-22 07:23 | 42.26991 | 63.42813 | 33216 ft | 530 kts | 70° |
| 2026-02-22 07:23 | 42.29224 | 63.52305 | 33213 ft | 530 kts | 70° |
| 2026-02-22 07:24 | 42.31439 | 63.61763 | 33216 ft | 530 kts | 70° |
| 2026-02-22 07:24 | 42.33659 | 63.71279 | 33217 ft | 530 kts | 70° |
| 2026-02-22 07:25 | 42.35870 | 63.80801 | 33212 ft | 530 kts | 70° |
| 2026-02-22 07:25 | 42.38063 | 63.90281 | 33214 ft | 530 kts | 70° |
| 2026-02-22 07:26 | 42.40257 | 63.99804 | 33212 ft | 530 kts | 70° |
| 2026-02-22 07:26 | 42.42042 | 64.07741 | 33212 ft | 530 kts | 71° |
| 2026-02-22 07:27 | 42.44156 | 64.17324 | 33218 ft | 530 kts | 71° |
| 2026-02-22 07:27 | 42.46265 | 64.26833 | 33216 ft | 530 kts | 70° |
| 2026-02-22 07:28 | 42.48423 | 64.36411 | 33211 ft | 530 kts | 70° |
| 2026-02-22 07:28 | 42.50578 | 64.45989 | 33218 ft | 531 kts | 70° |
| 2026-02-22 07:29 | 42.52708 | 64.55520 | 33217 ft | 531 kts | 70° |
| 2026-02-22 07:29 | 42.54837 | 64.65113 | 33218 ft | 531 kts | 70° |
| 2026-02-22 07:30 | 42.56970 | 64.74766 | 33216 ft | 532 kts | 70° |
| 2026-02-22 07:30 | 42.59076 | 64.84334 | 33219 ft | 532 kts | 70° |
| 2026-02-22 07:31 | 42.61186 | 64.93965 | 33206 ft | 532 kts | 70° |
| 2026-02-22 07:31 | 42.63289 | 65.03605 | 33206 ft | 532 kts | 71° |
| 2026-02-22 07:32 | 42.65385 | 65.13262 | 33211 ft | 532 kts | 71° |
| 2026-02-22 07:32 | 42.67460 | 65.22865 | 33217 ft | 531 kts | 71° |
| 2026-02-22 07:33 | 42.69540 | 65.32530 | 33214 ft | 531 kts | 71° |
| 2026-02-22 07:33 | 42.71594 | 65.42120 | 33212 ft | 531 kts | 71° |
| 2026-02-22 07:34 | 42.73653 | 65.51780 | 33215 ft | 531 kts | 71° |
| 2026-02-22 07:34 | 42.75710 | 65.61472 | 33211 ft | 531 kts | 71° |
| 2026-02-22 07:35 | 42.77741 | 65.71085 | 33213 ft | 531 kts | 71° |
| 2026-02-22 07:35 | 42.79783 | 65.80777 | 33212 ft | 532 kts | 71° |
| 2026-02-22 07:36 | 42.81841 | 65.90487 | 33212 ft | 532 kts | 71° |
| 2026-02-22 07:36 | 42.83875 | 66.00117 | 33215 ft | 532 kts | 71° |
| 2026-02-22 07:37 | 42.85913 | 66.09829 | 33210 ft | 532 kts | 71° |
| 2026-02-22 07:37 | 42.87912 | 66.19561 | 33205 ft | 532 kts | 71° |
| 2026-02-22 07:38 | 42.89874 | 66.29255 | 33210 ft | 532 kts | 71° |
| 2026-02-22 07:38 | 42.91841 | 66.38999 | 33205 ft | 532 kts | 71° |
| 2026-02-22 07:39 | 42.93807 | 66.48758 | 33205 ft | 532 kts | 72° |
| 2026-02-22 07:39 | 42.95750 | 66.58447 | 33209 ft | 532 kts | 72° |
| 2026-02-22 07:40 | 42.97699 | 66.68218 | 33207 ft | 532 kts | 72° |
| 2026-02-22 07:40 | 42.99638 | 66.77982 | 33197 ft | 532 kts | 72° |
| 2026-02-22 07:41 | 43.01573 | 66.87740 | 33205 ft | 532 kts | 72° |
| 2026-02-22 07:41 | 43.03502 | 66.97487 | 33198 ft | 532 kts | 72° |
| 2026-02-22 07:42 | 43.05426 | 67.07265 | 33195 ft | 532 kts | 72° |
| 2026-02-22 07:42 | 43.08295 | 67.21945 | 33194 ft | 532 kts | 72° |
| 2026-02-22 07:43 | 43.10195 | 67.31724 | 33190 ft | 532 kts | 72° |
| 2026-02-22 07:43 | 43.12092 | 67.41534 | 33193 ft | 533 kts | 72° |
| 2026-02-22 07:44 | 43.13969 | 67.51306 | 33188 ft | 533 kts | 72° |
| 2026-02-22 07:44 | 43.15844 | 67.61142 | 33184 ft | 533 kts | 72° |
| 2026-02-22 07:45 | 43.17699 | 67.70919 | 33187 ft | 533 kts | 72° |
| 2026-02-22 07:45 | 43.19564 | 67.80792 | 33183 ft | 534 kts | 72° |
| 2026-02-22 07:46 | 43.21427 | 67.90658 | 33181 ft | 534 kts | 72° |
| 2026-02-22 07:46 | 43.23276 | 68.00486 | 33177 ft | 534 kts | 72° |
| 2026-02-22 07:47 | 43.25123 | 68.10361 | 33178 ft | 534 kts | 72° |
| 2026-02-22 07:47 | 43.26950 | 68.20186 | 33175 ft | 534 kts | 72° |
| 2026-02-22 07:48 | 43.28783 | 68.30087 | 33186 ft | 534 kts | 72° |
| 2026-02-22 07:48 | 43.30479 | 68.40047 | 33189 ft | 536 kts | 77° |
| 2026-02-22 07:49 | 43.31672 | 68.50159 | 33176 ft | 536 kts | 78° |
| 2026-02-22 07:49 | 43.32867 | 68.60216 | 33194 ft | 537 kts | 79° |
| 2026-02-22 07:50 | 43.33790 | 68.70426 | 33186 ft | 538 kts | 82° |
| 2026-02-22 07:50 | 43.34572 | 68.80667 | 33178 ft | 538 kts | 82° |
| 2026-02-22 07:51 | 43.35395 | 68.90819 | 33159 ft | 538 kts | 81° |
| 2026-02-22 07:51 | 43.36254 | 69.01046 | 33147 ft | 538 kts | 81° |
| 2026-02-22 07:52 | 43.37103 | 69.11291 | 33150 ft | 538 kts | 81° |
| 2026-02-22 07:52 | 43.37942 | 69.21484 | 33138 ft | 538 kts | 81° |
| 2026-02-22 07:53 | 43.38825 | 69.31678 | 33146 ft | 538 kts | 81° |
| 2026-02-22 07:53 | 43.39714 | 69.41924 | 33140 ft | 538 kts | 81° |
| 2026-02-22 07:54 | 43.40579 | 69.52101 | 33141 ft | 539 kts | 81° |
| 2026-02-22 07:54 | 43.41437 | 69.62345 | 33137 ft | 539 kts | 81° |
| 2026-02-22 07:55 | 43.42287 | 69.72603 | 33137 ft | 539 kts | 81° |
| 2026-02-22 07:55 | 43.43145 | 69.82861 | 33144 ft | 539 kts | 81° |
| 2026-02-22 07:56 | 43.44019 | 69.93075 | 33137 ft | 539 kts | 81° |
| 2026-02-22 07:56 | 43.44883 | 70.03265 | 33133 ft | 539 kts | 81° |
| 2026-02-22 07:57 | 43.45738 | 70.13517 | 33126 ft | 539 kts | 81° |
| 2026-02-22 07:57 | 43.46580 | 70.23768 | 33129 ft | 539 kts | 81° |
| 2026-02-22 07:58 | 43.47415 | 70.34032 | 33132 ft | 539 kts | 81° |
| 2026-02-22 07:58 | 43.48242 | 70.44302 | 33127 ft | 539 kts | 81° |
| 2026-02-22 07:59 | 43.49054 | 70.54518 | 33129 ft | 539 kts | 81° |
| 2026-02-22 07:59 | 43.49863 | 70.64805 | 33130 ft | 540 kts | 81° |
| 2026-02-22 08:00 | 43.50663 | 70.75100 | 33137 ft | 540 kts | 82° |
| 2026-02-22 08:00 | 43.51451 | 70.85345 | 33129 ft | 540 kts | 82° |
| 2026-02-22 08:01 | 43.52229 | 70.95658 | 33131 ft | 540 kts | 82° |
| 2026-02-22 08:01 | 43.52992 | 71.05976 | 33132 ft | 541 kts | 82° |
| 2026-02-22 08:02 | 43.53741 | 71.16235 | 33134 ft | 541 kts | 82° |
| 2026-02-22 08:02 | 43.54488 | 71.26562 | 33131 ft | 541 kts | 82° |
| 2026-02-22 08:03 | 43.55226 | 71.36896 | 33128 ft | 541 kts | 82° |
| 2026-02-22 08:03 | 43.55955 | 71.47243 | 33127 ft | 541 kts | 82° |
| 2026-02-22 08:04 | 43.56670 | 71.57509 | 33110 ft | 541 kts | 82° |
| 2026-02-22 08:04 | 43.57380 | 71.67851 | 33114 ft | 541 kts | 82° |
| 2026-02-22 08:05 | 43.58080 | 71.78191 | 33105 ft | 541 kts | 82° |
| 2026-02-22 08:05 | 43.58767 | 71.88470 | 33106 ft | 540 kts | 83° |
| 2026-02-22 08:06 | 43.59448 | 71.98810 | 33107 ft | 540 kts | 83° |
| 2026-02-22 08:06 | 43.60121 | 72.09161 | 33107 ft | 540 kts | 83° |
| 2026-02-22 08:07 | 43.60779 | 72.19426 | 33110 ft | 540 kts | 83° |
| 2026-02-22 08:07 | 43.61431 | 72.29751 | 33111 ft | 539 kts | 83° |
| 2026-02-22 08:08 | 43.62075 | 72.40089 | 33112 ft | 539 kts | 83° |
| 2026-02-22 08:08 | 43.62710 | 72.50433 | 33109 ft | 539 kts | 83° |
| 2026-02-22 08:09 | 43.63330 | 72.60704 | 33107 ft | 539 kts | 83° |
| 2026-02-22 08:09 | 43.63945 | 72.71028 | 33110 ft | 539 kts | 83° |
| 2026-02-22 08:10 | 43.64550 | 72.81350 | 33107 ft | 539 kts | 83° |
| 2026-02-22 08:10 | 43.65143 | 72.91636 | 33113 ft | 539 kts | 84° |
| 2026-02-22 08:11 | 43.65731 | 73.01978 | 33111 ft | 539 kts | 84° |
| 2026-02-22 08:11 | 43.66309 | 73.12328 | 33112 ft | 539 kts | 84° |
| 2026-02-22 08:12 | 43.66877 | 73.22666 | 33114 ft | 539 kts | 84° |
| 2026-02-22 08:12 | 43.67433 | 73.32939 | 33108 ft | 539 kts | 84° |
| 2026-02-22 08:13 | 43.67895 | 73.41615 | 33109 ft | 539 kts | 84° |
| 2026-02-22 08:13 | 43.68433 | 73.51890 | 33107 ft | 539 kts | 84° |
| 2026-02-22 08:14 | 43.68966 | 73.62234 | 33105 ft | 540 kts | 84° |
| 2026-02-22 08:14 | 43.69490 | 73.72588 | 33104 ft | 540 kts | 85° |
| 2026-02-22 08:15 | 43.69478 | 73.82931 | 33105 ft | 541 kts | 92° |
| 2026-02-22 08:15 | 43.69112 | 73.93316 | 33092 ft | 541 kts | 92° |
| 2026-02-22 08:16 | 43.68778 | 74.03715 | 33084 ft | 541 kts | 91° |
| 2026-02-22 08:16 | 43.68475 | 74.14135 | 33084 ft | 541 kts | 91° |
| 2026-02-22 08:17 | 43.68161 | 74.24503 | 33073 ft | 541 kts | 91° |
| 2026-02-22 08:17 | 43.67843 | 74.34915 | 33066 ft | 541 kts | 91° |
| 2026-02-22 08:18 | 43.67522 | 74.45232 | 33055 ft | 540 kts | 91° |
| 2026-02-22 08:18 | 43.67190 | 74.55611 | 33061 ft | 540 kts | 91° |
| 2026-02-22 08:19 | 43.66847 | 74.65987 | 33056 ft | 540 kts | 92° |
| 2026-02-22 08:19 | 43.66497 | 74.76276 | 33059 ft | 539 kts | 92° |
| 2026-02-22 08:20 | 43.66135 | 74.86637 | 33077 ft | 538 kts | 92° |
| 2026-02-22 08:20 | 43.65768 | 74.96923 | 33088 ft | 538 kts | 92° |
| 2026-02-22 08:21 | 43.65194 | 75.12467 | 33089 ft | 539 kts | 92° |
| 2026-02-22 08:22 | 43.64803 | 75.22756 | 33093 ft | 539 kts | 92° |
| 2026-02-22 08:22 | 43.64400 | 75.33090 | 33099 ft | 539 kts | 92° |
| 2026-02-22 08:23 | 43.63989 | 75.43424 | 33104 ft | 538 kts | 92° |
| 2026-02-22 08:23 | 43.63570 | 75.53753 | 33106 ft | 538 kts | 92° |
| 2026-02-22 08:24 | 43.63134 | 75.64075 | 33100 ft | 538 kts | 92° |
| 2026-02-22 08:24 | 43.62689 | 75.74331 | 33108 ft | 538 kts | 92° |
| 2026-02-22 08:25 | 43.62233 | 75.84656 | 33103 ft | 538 kts | 92° |
| 2026-02-22 08:25 | 43.61769 | 75.94973 | 33103 ft | 538 kts | 92° |
| 2026-02-22 08:26 | 43.61299 | 76.05230 | 33105 ft | 538 kts | 93° |
| 2026-02-22 08:26 | 43.60817 | 76.15548 | 33102 ft | 538 kts | 93° |
| 2026-02-22 08:27 | 43.60328 | 76.25831 | 33102 ft | 538 kts | 93° |
| 2026-02-22 08:27 | 43.59934 | 76.36139 | 33100 ft | 537 kts | 89° |
| 2026-02-22 08:28 | 43.59913 | 76.46465 | 33103 ft | 537 kts | 88° |
| 2026-02-22 08:28 | 43.59921 | 76.56742 | 33099 ft | 537 kts | 89° |
| 2026-02-22 08:29 | 43.59882 | 76.67066 | 33100 ft | 537 kts | 89° |
| 2026-02-22 08:29 | 43.59822 | 76.77336 | 33099 ft | 538 kts | 89° |
| 2026-02-22 08:30 | 43.59727 | 76.87639 | 33101 ft | 538 kts | 90° |
| 2026-02-22 08:30 | 43.59576 | 76.97970 | 33104 ft | 538 kts | 89° |
| 2026-02-22 08:31 | 43.59475 | 77.08311 | 33098 ft | 538 kts | 89° |
| 2026-02-22 08:31 | 43.59357 | 77.18647 | 33092 ft | 538 kts | 90° |
| 2026-02-22 08:32 | 43.59008 | 77.28983 | 33093 ft | 538 kts | 92° |